Time;durP1;ratioP1;P1;durP2;ratioP2;P2;SDS_P1;SDS_P2;PMS_P1;PMS_P2;Temp;Humidity;BMP_temperature;BMP_pressure;BME280_temperature;BME280_humidity;BME280_pressure;Samples;Min_cycle;Max_cycle;Signal;HPM_P1;HPM_P2
2023/03/03 00:01:17;;;;;;;;;;;3.90;91.60;;;;;;5061653;28;19946;-88
2023/03/03 00:03:43;;;;;;;;;;;3.90;91.50;;;;;;5053776;28;20609;-88
2023/03/03 00:06:10;;;;;;;;;;;3.80;91.50;;;;;;5053803;28;19937;-88
2023/03/03 00:08:35;;;;;;;;;;;3.80;91.50;;;;;;5053989;28;19950;-88
2023/03/03 00:11:03;;;;;;;;;;;3.70;91.30;;;;;;5062935;28;20457;-88
2023/03/03 00:13:30;;;;;;;;;;;3.70;91.30;;;;;;5073839;28;19964;-88
2023/03/03 00:16:09;;;;;;;;;;;3.80;91.40;;;;;;5073107;28;19950;-88
2023/03/03 00:18:36;;;;;;;;;;;3.70;91.30;;;;;;5073591;28;19936;-87
2023/03/03 00:21:03;;;;;;;;;;;3.70;91.40;;;;;;5064156;28;19952;-87
2023/03/03 00:23:36;;;;;;;;;;;3.70;91.90;;;;;;5053567;28;19939;-87
2023/03/03 00:26:05;;;;;;;;;;;3.70;92.10;;;;;;5053471;28;19938;-87
2023/03/03 00:28:57;;;;;;;;;;;3.60;92.00;;;;;;5053487;28;19939;-87
2023/03/03 00:31:28;;;;;;;;;;;3.60;92.10;;;;;;5062802;28;19969;-87
2023/03/03 00:33:54;;;;;;;;;;;3.50;92.00;;;;;;5073284;28;20370;-88
2023/03/03 00:36:30;;;;;;;;;;;3.50;92.10;;;;;;5073295;28;20351;-88
2023/03/03 00:39:09;;;;;;;;;;;3.60;92.30;;;;;;5073196;28;20443;-88
2023/03/03 00:41:36;;;;;;;;;;;3.80;92.70;;;;;;5059685;28;19999;-88
2023/03/03 00:44:22;;;;;;;;;;;3.80;92.40;;;;;;5053182;28;19949;-88
2023/03/03 00:46:47;;;;;;;;;;;3.80;92.40;;;;;;5053104;28;20450;-87
2023/03/03 00:49:21;;;;;;;;;;;3.70;92.70;;;;;;5053165;28;19937;-87
2023/03/03 00:51:46;;;;;;;;;;;3.90;92.80;;;;;;5066888;28;20363;-87
2023/03/03 00:54:12;;;;;;;;;;;4.00;93.00;;;;;;5072923;28;20059;-88
2023/03/03 00:56:37;;;;;;;;;;;4.00;92.40;;;;;;5073096;28;20061;-87
2023/03/03 00:59:03;;;;;;;;;;;3.90;91.90;;;;;;5073093;28;20316;-87
2023/03/03 01:01:29;;;;;;;;;;;4.00;92.00;;;;;;5061361;28;19974;-87
2023/03/03 01:03:54;;;;;;;;;;;4.00;91.90;;;;;;5052658;28;20353;-86
2023/03/03 01:06:20;;;;;;;;;;;3.80;90.90;;;;;;5053078;28;19973;-87
2023/03/03 01:08:46;;;;;;;;;;;3.60;90.70;;;;;;5052968;28;20357;-87
2023/03/03 01:11:15;;;;;;;;;;;3.60;90.80;;;;;;5061549;28;19942;-87
2023/03/03 01:13:41;;;;;;;;;;;3.60;90.90;;;;;;5072831;28;19961;-87
2023/03/03 01:16:07;;;;;;;;;;;3.60;90.70;;;;;;5072954;28;19944;-87
2023/03/03 01:18:33;;;;;;;;;;;3.50;90.10;;;;;;5072894;28;19937;-87
2023/03/03 01:21:00;;;;;;;;;;;3.40;90.00;;;;;;5065948;28;20037;-87
2023/03/03 01:23:27;;;;;;;;;;;3.40;91.00;;;;;;5052762;28;19946;-87
2023/03/03 01:25:52;;;;;;;;;;;3.40;91.80;;;;;;5034916;28;19939;-87
2023/03/03 01:28:18;;;;;;;;;;;3.40;91.30;;;;;;5054906;28;20000;-88
2023/03/03 01:30:43;;;;;;;;;;;3.40;90.90;;;;;;5060981;28;20035;-87
2023/03/03 01:33:09;;;;;;;;;;;3.30;89.70;;;;;;5076673;28;19982;-87
2023/03/03 01:35:35;;;;;;;;;;;3.20;89.70;;;;;;5058772;28;19945;-87
2023/03/03 01:38:00;;;;;;;;;;;3.10;90.20;;;;;;5076645;28;19938;-88
2023/03/03 01:40:28;;;;;;;;;;;3.00;90.30;;;;;;5074557;28;19939;-88
2023/03/03 01:42:54;;;;;;;;;;;3.00;90.80;;;;;;5056525;28;20362;-87
2023/03/03 01:45:30;;;;;;;;;;;3.10;91.60;;;;;;5056506;28;20034;-87
2023/03/03 01:48:02;;;;;;;;;;;3.20;92.00;;;;;;5056150;28;19960;-88
2023/03/03 01:50:31;;;;;;;;;;;3.20;93.10;;;;;;5056742;28;20001;-88
2023/03/03 01:52:58;;;;;;;;;;;3.30;93.60;;;;;;5056217;28;19958;-88
2023/03/03 01:55:27;;;;;;;;;;;3.30;93.60;;;;;;5056345;28;19941;-87
2023/03/03 01:58:12;;;;;;;;;;;3.30;93.10;;;;;;5056323;28;19937;-87
2023/03/03 02:00:39;;;;;;;;;;;3.40;92.70;;;;;;5071692;28;19985;-88
2023/03/03 02:03:05;;;;;;;;;;;3.30;92.90;;;;;;5056052;28;20063;-87
2023/03/03 02:05:31;;;;;;;;;;;3.30;92.60;;;;;;5056135;28;20023;-87
2023/03/03 02:07:57;;;;;;;;;;;3.30;92.60;;;;;;5056063;28;19943;-87
2023/03/03 02:10:22;;;;;;;;;;;3.40;92.70;;;;;;5056382;28;19939;-87
2023/03/03 02:12:50;;;;;;;;;;;3.40;92.80;;;;;;5075955;28;19937;-87
2023/03/03 02:15:23;;;;;;;;;;;3.40;92.70;;;;;;5075853;28;19965;-87
2023/03/03 02:17:51;;;;;;;;;;;3.30;92.90;;;;;;5075839;28;20023;-87
2023/03/03 02:20:41;;;;;;;;;;;3.30;93.00;;;;;;5075646;28;19942;-87
2023/03/03 02:23:07;;;;;;;;;;;3.30;93.10;;;;;;5055760;28;20401;-87
2023/03/03 02:25:44;;;;;;;;;;;3.20;92.80;;;;;;5055617;28;20030;-87
2023/03/03 02:28:10;;;;;;;;;;;3.20;92.10;;;;;;5061268;28;20384;-88
2023/03/03 02:30:36;;;;;;;;;;;3.10;91.90;;;;;;5057604;28;20043;-87
2023/03/03 02:33:02;;;;;;;;;;;3.10;92.00;;;;;;5075576;28;20432;-87
2023/03/03 02:35:27;;;;;;;;;;;3.10;91.30;;;;;;5075606;28;19973;-87
2023/03/03 02:37:54;;;;;;;;;;;3.00;91.10;;;;;;5071252;28;20021;-87
2023/03/03 02:40:20;;;;;;;;;;;3.00;91.20;;;;;;5055356;28;19939;-87
2023/03/03 02:42:47;;;;;;;;;;;3.10;91.70;;;;;;5055437;28;20397;-87
2023/03/03 02:45:13;;;;;;;;;;;3.00;91.50;;;;;;5055381;28;19937;-88
2023/03/03 02:47:38;;;;;;;;;;;3.00;91.50;;;;;;5056434;28;19944;-88
2023/03/03 02:50:04;;;;;;;;;;;3.10;91.50;;;;;;5073615;28;20198;-88
2023/03/03 02:52:30;;;;;;;;;;;3.10;91.40;;;;;;5075194;28;20045;-88
2023/03/03 02:54:55;;;;;;;;;;;3.20;91.60;;;;;;5075106;28;19970;-88
2023/03/03 02:57:21;;;;;;;;;;;3.40;91.50;;;;;;5075142;28;20379;-88
2023/03/03 02:59:46;;;;;;;;;;;3.50;91.10;;;;;;5056048;28;19950;-88
2023/03/03 03:02:12;;;;;;;;;;;3.60;90.70;;;;;;5055025;28;19943;-88
2023/03/03 03:04:37;;;;;;;;;;;3.50;90.40;;;;;;5054751;28;19950;-88
2023/03/03 03:07:03;;;;;;;;;;;3.50;90.10;;;;;;5054952;28;20504;-87
2023/03/03 03:09:28;;;;;;;;;;;3.50;89.50;;;;;;5070636;28;19947;-87
2023/03/03 03:11:54;;;;;;;;;;;3.40;89.40;;;;;;5074884;28;19988;-87
2023/03/03 03:14:19;;;;;;;;;;;3.50;89.20;;;;;;5074564;28;19964;-87
2023/03/03 03:16:45;;;;;;;;;;;3.50;89.10;;;;;;5074783;28;19934;-88
2023/03/03 03:19:11;;;;;;;;;;;3.60;88.50;;;;;;5061228;28;20323;-87
2023/03/03 03:21:36;;;;;;;;;;;3.50;87.80;;;;;;5054650;28;19950;-87
2023/03/03 03:24:02;;;;;;;;;;;3.40;88.40;;;;;;5069971;28;19950;-87
2023/03/03 03:26:27;;;;;;;;;;;3.20;88.90;;;;;;5054719;28;19950;-87
2023/03/03 03:28:53;;;;;;;;;;;3.10;89.00;;;;;;5064933;28;19936;-87
2023/03/03 03:31:20;;;;;;;;;;;3.20;89.20;;;;;;5074491;28;19990;-87
2023/03/03 03:33:46;;;;;;;;;;;3.20;89.20;;;;;;5074959;28;19957;-87
2023/03/03 03:36:11;;;;;;;;;;;3.20;88.90;;;;;;5074677;28;19942;-87
2023/03/03 03:38:37;;;;;;;;;;;3.20;88.20;;;;;;5065802;28;19942;-87
2023/03/03 03:41:03;;;;;;;;;;;3.00;88.40;;;;;;5054315;28;20000;-87
2023/03/03 03:43:29;;;;;;;;;;;2.90;88.70;;;;;;5054197;28;19938;-88
2023/03/03 03:45:54;;;;;;;;;;;2.70;88.90;;;;;;5054470;28;19935;-87
2023/03/03 03:48:20;;;;;;;;;;;2.60;89.40;;;;;;5059594;28;20391;-88
2023/03/03 03:50:46;;;;;;;;;;;2.70;91.10;;;;;;5072865;28;19950;-88
2023/03/03 03:53:11;;;;;;;;;;;2.70;90.80;;;;;;5074459;28;19936;-87
2023/03/03 03:55:37;;;;;;;;;;;2.50;91.30;;;;;;5073953;28;19939;-87
2023/03/03 03:58:02;;;;;;;;;;;2.70;91.80;;;;;;5070504;28;20423;-87
2023/03/03 04:00:28;;;;;;;;;;;2.70;91.30;;;;;;5053759;28;20390;-87
2023/03/03 04:02:54;;;;;;;;;;;2.70;91.00;;;;;;5035816;28;20469;-87
2023/03/03 04:05:19;;;;;;;;;;;2.70;90.70;;;;;;5053816;28;20377;-86
2023/03/03 04:07:45;;;;;;;;;;;2.50;90.20;;;;;;5053964;28;19943;-87
2023/03/03 04:10:11;;;;;;;;;;;2.50;90.30;;;;;;5073663;28;20411;-87
2023/03/03 04:12:39;;;;;;;;;;;2.40;90.90;;;;;;5073716;28;19942;-87
2023/03/03 04:15:09;;;;;;;;;;;2.40;91.20;;;;;;5073592;28;19956;-87
2023/03/03 04:17:34;;;;;;;;;;;2.40;91.50;;;;;;5073599;28;19960;-87
2023/03/03 04:20:01;;;;;;;;;;;2.50;91.70;;;;;;5054523;28;20411;-87
2023/03/03 04:22:26;;;;;;;;;;;2.60;91.70;;;;;;5053562;28;19945;-87
2023/03/03 04:24:52;;;;;;;;;;;2.60;91.60;;;;;;5069003;28;19946;-87
2023/03/03 04:27:18;;;;;;;;;;;2.60;91.20;;;;;;5073457;28;20064;-87
2023/03/03 04:29:43;;;;;;;;;;;2.60;91.10;;;;;;5073404;28;19945;-87
2023/03/03 04:32:09;;;;;;;;;;;2.70;91.20;;;;;;5073384;28;19941;-88
2023/03/03 04:34:34;;;;;;;;;;;2.60;91.20;;;;;;5073315;28;19965;-88
2023/03/03 04:37:00;;;;;;;;;;;2.60;91.20;;;;;;5055540;28;20043;-88
2023/03/03 04:39:26;;;;;;;;;;;2.60;91.10;;;;;;5053295;28;19947;-87
2023/03/03 04:41:52;;;;;;;;;;;2.60;91.10;;;;;;5035346;28;19989;-87
2023/03/03 04:44:17;;;;;;;;;;;2.60;91.20;;;;;;5053248;28;19937;-87
2023/03/03 04:46:43;;;;;;;;;;;2.60;90.60;;;;;;5068057;28;19956;-87
2023/03/03 04:49:09;;;;;;;;;;;2.50;90.80;;;;;;5055177;28;20382;-87
2023/03/03 04:51:34;;;;;;;;;;;2.50;92.30;;;;;;5073146;28;19943;-87
2023/03/03 04:54:00;;;;;;;;;;;2.50;92.20;;;;;;5073004;28;19965;-87
2023/03/03 04:56:25;;;;;;;;;;;2.50;91.40;;;;;;5060130;28;19956;-87
2023/03/03 04:58:51;;;;;;;;;;;2.40;90.40;;;;;;5053007;28;19937;-88
2023/03/03 05:01:18;;;;;;;;;;;2.40;90.60;;;;;;5052704;28;19940;-88
2023/03/03 05:03:44;;;;;;;;;;;2.40;90.80;;;;;;5052790;28;19972;-88
2023/03/03 05:06:09;;;;;;;;;;;2.50;91.00;;;;;;5062791;28;19952;-88
2023/03/03 05:08:35;;;;;;;;;;;2.50;90.90;;;;;;5073044;28;20039;-88
2023/03/03 05:11:01;;;;;;;;;;;2.40;90.70;;;;;;5073012;28;19958;-89
2023/03/03 05:13:26;;;;;;;;;;;2.50;90.80;;;;;;5072901;28;19961;-88
2023/03/03 05:15:56;;;;;;;;;;;2.50;90.20;;;;;;5065093;28;19996;-88
2023/03/03 05:18:22;;;;;;;;;;;2.50;90.40;;;;;;5052854;28;19937;-88
2023/03/03 05:20:49;;;;;;;;;;;2.50;90.40;;;;;;5052851;28;19984;-88
2023/03/03 05:23:15;;;;;;;;;;;2.50;90.40;;;;;;5052806;28;20413;-87
2023/03/03 05:25:41;;;;;;;;;;;2.50;90.40;;;;;;5058150;28;19957;-88
2023/03/03 05:28:07;;;;;;;;;;;2.40;90.60;;;;;;5072774;28;19962;-86
2023/03/03 05:30:33;;;;;;;;;;;2.40;90.50;;;;;;5072750;28;20420;-87
2023/03/03 05:32:58;;;;;;;;;;;2.30;90.80;;;;;;5072760;28;19937;-87
2023/03/03 05:35:24;;;;;;;;;;;2.20;92.20;;;;;;5069927;28;20015;-87
2023/03/03 05:37:51;;;;;;;;;;;2.20;92.50;;;;;;5034704;28;19982;-86
2023/03/03 05:40:17;;;;;;;;;;;2.20;92.50;;;;;;5052695;28;20025;-87
2023/03/03 05:42:43;;;;;;;;;;;2.20;92.10;;;;;;5052526;28;20374;-87
2023/03/03 05:45:09;;;;;;;;;;;2.10;91.80;;;;;;5052547;28;19991;-88
2023/03/03 05:47:34;;;;;;;;;;;2.20;91.60;;;;;;5072724;28;19944;-88
2023/03/03 05:50:00;;;;;;;;;;;2.20;91.80;;;;;;5072619;28;20074;-87
2023/03/03 05:52:25;;;;;;;;;;;2.20;91.80;;;;;;5072531;28;19963;-87
2023/03/03 05:54:51;;;;;;;;;;;2.10;92.00;;;;;;5072447;28;19959;-88
2023/03/03 05:57:16;;;;;;;;;;;2.20;92.70;;;;;;5054748;28;19956;-88
2023/03/03 05:59:42;;;;;;;;;;;2.20;92.70;;;;;;5052432;28;19940;-88
2023/03/03 06:02:07;;;;;;;;;;;2.30;92.40;;;;;;5052309;28;19987;-87
2023/03/03 06:04:33;;;;;;;;;;;2.40;92.10;;;;;;5052287;28;20000;-88
2023/03/03 06:06:58;;;;;;;;;;;2.40;91.90;;;;;;5067851;28;19946;-88
2023/03/03 06:09:25;;;;;;;;;;;2.30;91.40;;;;;;5033993;28;19945;-88
2023/03/03 06:11:52;;;;;;;;;;;2.20;91.40;;;;;;5050593;28;19947;-88
2023/03/03 06:14:19;;;;;;;;;;;2.10;91.60;;;;;;5053051;28;20437;-88
2023/03/03 06:16:45;;;;;;;;;;;2.30;92.00;;;;;;5062181;28;19939;-88
2023/03/03 06:19:10;;;;;;;;;;;2.50;92.00;;;;;;5055664;28;19988;-88
2023/03/03 06:21:36;;;;;;;;;;;2.70;92.00;;;;;;5056643;28;19956;-88
2023/03/03 06:24:01;;;;;;;;;;;2.90;91.90;;;;;;5055876;28;20405;-88
2023/03/03 06:26:27;;;;;;;;;;;2.90;91.40;;;;;;5052832;28;19986;-87
2023/03/03 06:28:54;;;;;;;;;;;2.90;91.10;;;;;;5038326;28;20030;-87
2023/03/03 06:31:20;;;;;;;;;;;2.80;90.50;;;;;;5051340;28;19944;-87
2023/03/03 06:33:45;;;;;;;;;;;2.80;90.20;;;;;;5050602;28;19970;-87
2023/03/03 06:36:11;;;;;;;;;;;2.70;90.30;;;;;;5054087;28;20292;-88
2023/03/03 06:38:36;;;;;;;;;;;2.70;91.60;;;;;;5042675;28;20402;-88
2023/03/03 06:41:06;;;;;;;;;;;2.70;91.60;;;;;;5054611;28;20314;-88
2023/03/03 06:43:32;;;;;;;;;;;2.70;91.40;;;;;;5035437;28;19942;-88
2023/03/03 06:45:57;;;;;;;;;;;2.70;91.30;;;;;;5053823;28;19945;-88
2023/03/03 06:48:23;;;;;;;;;;;2.80;91.40;;;;;;5052753;28;19990;-88
2023/03/03 06:50:49;;;;;;;;;;;2.80;91.70;;;;;;5054800;28;19950;-88
2023/03/03 06:53:16;;;;;;;;;;;3.00;91.90;;;;;;5064310;28;19956;-88
2023/03/03 06:55:43;;;;;;;;;;;3.10;92.00;;;;;;5053212;28;19999;-88
2023/03/03 06:58:19;;;;;;;;;;;3.40;92.00;;;;;;5055211;28;19937;-87
2023/03/03 07:00:48;;;;;;;;;;;3.50;92.10;;;;;;5049146;28;19942;-87
2023/03/03 07:03:15;;;;;;;;;;;3.80;91.70;;;;;;5071655;23;20001;-87
2023/03/03 07:05:41;;;;;;;;;;;4.00;91.00;;;;;;5066405;28;20035;-87
2023/03/03 07:08:15;;;;;;;;;;;4.00;90.30;;;;;;5071440;28;19957;-87
2023/03/03 07:10:41;;;;;;;;;;;4.00;90.30;;;;;;5066451;28;19942;-87
2023/03/03 07:13:32;;;;;;;;;;;3.90;90.60;;;;;;5075248;28;20366;-87
2023/03/03 07:16:00;;;;;;;;;;;3.90;90.80;;;;;;5068003;28;19981;-87
2023/03/03 07:18:49;;;;;;;;;;;3.90;91.20;;;;;;5072934;28;19949;-87
2023/03/03 07:21:16;;;;;;;;;;;3.90;91.50;;;;;;5074101;28;19969;-87
2023/03/03 07:23:43;;;;;;;;;;;4.10;91.40;;;;;;5075863;28;20049;-87
2023/03/03 07:26:12;;;;;;;;;;;4.20;91.20;;;;;;5071179;28;20403;-87
2023/03/03 07:28:42;;;;;;;;;;;4.30;91.30;;;;;;5078571;28;19940;-87
2023/03/03 07:31:37;;;;;;;;;;;4.40;90.90;;;;;;5073139;28;20389;-87
2023/03/03 07:34:13;;;;;;;;;;;4.50;90.30;;;;;;5057295;28;19952;-87
2023/03/03 07:36:39;;;;;;;;;;;4.70;90.10;;;;;;5077660;28;19955;-87
2023/03/03 07:39:19;;;;;;;;;;;4.90;89.90;;;;;;5068539;28;20028;-87
2023/03/03 07:41:44;;;;;;;;;;;5.10;90.00;;;;;;5077211;28;19940;-87
2023/03/03 07:44:47;;;;;;;;;;;5.30;89.90;;;;;;5071925;28;19946;-87
2023/03/03 07:47:17;;;;;;;;;;;5.40;90.10;;;;;;5025580;28;19944;-87
2023/03/03 07:49:42;;;;;;;;;;;5.60;89.90;;;;;;5066455;28;19960;-87
2023/03/03 07:52:17;;;;;;;;;;;5.80;89.60;;;;;;5074426;28;20336;-87
2023/03/03 07:54:44;;;;;;;;;;;5.90;89.70;;;;;;5080373;28;20419;-87
2023/03/03 07:57:10;;;;;;;;;;;6.00;89.50;;;;;;5084897;28;19946;-87
2023/03/03 07:59:36;;;;;;;;;;;6.10;89.60;;;;;;5089059;28;19956;-87
2023/03/03 08:02:04;;;;;;;;;;;6.40;89.60;;;;;;5086737;28;19992;-88
2023/03/03 08:04:36;;;;;;;;;;;6.50;89.20;;;;;;5081363;28;20056;-87
2023/03/03 08:07:02;;;;;;;;;;;6.70;88.60;;;;;;5082332;28;20030;-87
2023/03/03 08:09:38;;;;;;;;;;;6.90;88.60;;;;;;5082943;28;20037;-87
2023/03/03 08:12:06;;;;;;;;;;;7.10;87.50;;;;;;5090601;28;19951;-87
2023/03/03 08:14:33;;;;;;;;;;;7.30;86.00;;;;;;5077852;28;19960;-87
2023/03/03 08:16:59;;;;;;;;;;;7.40;85.10;;;;;;5077604;28;19945;-87
2023/03/03 08:19:25;;;;;;;;;;;7.50;84.40;;;;;;5070717;28;20330;-87
2023/03/03 08:21:51;;;;;;;;;;;7.80;83.90;;;;;;5085445;28;20242;-87
2023/03/03 08:24:17;;;;;;;;;;;8.20;82.20;;;;;;5083374;28;19950;-87
2023/03/03 08:26:43;;;;;;;;;;;8.40;80.10;;;;;;5078659;28;20351;-87
2023/03/03 08:29:10;;;;;;;;;;;8.50;80.50;;;;;;5073610;28;19942;-88
2023/03/03 08:31:36;;;;;;;;;;;8.70;80.10;;;;;;5081371;28;20491;-88
2023/03/03 08:34:03;;;;;;;;;;;8.80;80.50;;;;;;5084167;28;20050;-87
2023/03/03 08:36:28;;;;;;;;;;;8.80;79.20;;;;;;5086354;28;20003;-87
2023/03/03 08:38:54;;;;;;;;;;;8.80;78.90;;;;;;5081437;28;20347;-87
2023/03/03 08:41:19;;;;;;;;;;;8.90;75.60;;;;;;5083166;28;19985;-87
2023/03/03 08:43:45;;;;;;;;;;;8.90;74.80;;;;;;5082362;28;20404;-87
2023/03/03 08:46:11;;;;;;;;;;;9.10;75.60;;;;;;5082607;28;20005;-87
2023/03/03 08:48:36;;;;;;;;;;;9.10;73.50;;;;;;5083206;28;20212;-87
2023/03/03 08:51:02;;;;;;;;;;;9.30;73.60;;;;;;5083570;28;21093;-88
2023/03/03 08:53:27;;;;;;;;;;;9.70;72.50;;;;;;5082116;28;19963;-88
2023/03/03 08:55:53;;;;;;;;;;;10.10;70.60;;;;;;5084964;28;20390;-88
2023/03/03 08:58:19;;;;;;;;;;;10.30;71.60;;;;;;5079270;28;21213;-89
2023/03/03 09:00:45;;;;;;;;;;;10.40;70.90;;;;;;5086383;28;19986;-89
2023/03/03 09:03:10;;;;;;;;;;;10.40;71.40;;;;;;5086671;28;20377;-88
2023/03/03 09:05:36;;;;;;;;;;;10.40;71.00;;;;;;5080980;28;19949;-87
2023/03/03 09:08:02;;;;;;;;;;;10.40;70.00;;;;;;5083781;28;19941;-87
2023/03/03 09:10:30;;;;;;;;;;;10.40;70.70;;;;;;5087154;28;20415;-88
2023/03/03 09:13:01;;;;;;;;;;;10.40;72.60;;;;;;5084468;28;19942;-88
2023/03/03 09:15:27;;;;;;;;;;;10.50;70.40;;;;;;5080704;28;19962;-89
2023/03/03 09:17:54;;;;;;;;;;;10.60;69.60;;;;;;5085141;28;19982;-89
2023/03/03 09:20:28;;;;;;;;;;;10.80;69.40;;;;;;5084734;28;20031;-90
2023/03/03 09:22:54;;;;;;;;;;;10.90;67.90;;;;;;5081008;28;19944;-90
2023/03/03 09:25:19;;;;;;;;;;;11.10;68.30;;;;;;5088831;28;19956;-90
2023/03/03 09:27:45;;;;;;;;;;;11.30;68.10;;;;;;5062601;28;20073;-89
2023/03/03 09:30:29;;;;;;;;;;;11.50;66.80;;;;;;5078370;28;19947;-89
2023/03/03 09:32:55;;;;;;;;;;;11.70;66.10;;;;;;5077128;28;19944;-89
2023/03/03 09:35:30;;;;;;;;;;;11.60;65.80;;;;;;5063529;28;19962;-89
2023/03/03 09:37:56;;;;;;;;;;;11.40;66.50;;;;;;5084814;28;20029;-89
2023/03/03 09:40:38;;;;;;;;;;;11.20;67.00;;;;;;5083096;28;20466;-88
2023/03/03 09:43:08;;;;;;;;;;;11.20;66.60;;;;;;5082927;28;19942;-88
2023/03/03 09:45:36;;;;;;;;;;;11.20;67.60;;;;;;5078738;28;20513;-89
2023/03/03 09:48:04;;;;;;;;;;;11.50;67.50;;;;;;5079873;28;19944;-89
2023/03/03 09:50:33;;;;;;;;;;;11.50;66.40;;;;;;5071837;28;19952;-89
2023/03/03 09:53:10;;;;;;;;;;;11.80;66.00;;;;;;5087300;28;20056;-89
2023/03/03 09:55:42;;;;;;;;;;;12.10;65.20;;;;;;5093008;28;20397;-89
2023/03/03 09:58:26;;;;;;;;;;;12.50;63.50;;;;;;5080519;28;19953;-89
2023/03/03 10:00:57;;;;;;;;;;;12.80;62.90;;;;;;5088905;28;20038;-89
2023/03/03 10:03:23;;;;;;;;;;;12.90;62.00;;;;;;5070331;28;20493;-89
2023/03/03 10:06:02;;;;;;;;;;;13.10;61.60;;;;;;5088695;28;20287;-90
2023/03/03 10:08:35;;;;;;;;;;;13.30;61.20;;;;;;5089085;28;19951;-90
2023/03/03 10:11:01;;;;;;;;;;;13.30;62.40;;;;;;5073374;28;19953;-89
2023/03/03 10:13:26;;;;;;;;;;;13.30;61.30;;;;;;5088658;28;19945;-89
2023/03/03 10:16:10;;;;;;;;;;;13.10;61.00;;;;;;5090329;28;20018;-89
2023/03/03 10:18:49;;;;;;;;;;;12.90;62.50;;;;;;5092462;28;20352;-89
2023/03/03 10:21:33;;;;;;;;;;;12.70;62.60;;;;;;5072286;28;20315;-89
2023/03/03 10:24:14;;;;;;;;;;;12.70;63.40;;;;;;5083468;28;19949;-90
2023/03/03 10:26:56;;;;;;;;;;;12.90;61.90;;;;;;5080154;28;19942;-90
2023/03/03 10:29:21;;;;;;;;;;;13.10;61.10;;;;;;5060787;28;19980;-89
2023/03/03 10:31:47;;;;;;;;;;;13.30;61.40;;;;;;5083776;28;20428;-89
2023/03/03 10:34:25;;;;;;;;;;;13.20;62.00;;;;;;5080497;28;20055;-89
2023/03/03 10:36:56;;;;;;;;;;;13.30;62.30;;;;;;5081240;28;20400;-89
2023/03/03 10:39:21;;;;;;;;;;;13.20;61.40;;;;;;5083780;28;19983;-89
2023/03/03 10:42:14;;;;;;;;;;;13.30;59.70;;;;;;5092943;28;19946;-89
2023/03/03 10:44:57;;;;;;;;;;;13.40;59.30;;;;;;5087312;28;19971;-90
2023/03/03 10:47:39;;;;;;;;;;;13.80;57.60;;;;;;5091430;28;20008;-90
2023/03/03 10:50:17;;;;;;;;;;;14.00;57.10;;;;;;5090630;28;20029;-89
2023/03/03 10:52:48;;;;;;;;;;;13.60;57.30;;;;;;5088336;28;19959;-89
2023/03/03 10:55:32;;;;;;;;;;;13.30;58.60;;;;;;5087079;28;19960;-89
2023/03/03 10:58:26;;;;;;;;;;;13.20;59.20;;;;;;5087142;28;19942;-89
2023/03/03 11:00:55;;;;;;;;;;;13.30;58.80;;;;;;5006273;28;20072;-88
2023/03/03 11:03:32;;;;;;;;;;;13.40;59.70;;;;;;5084795;28;19979;-89
2023/03/03 11:05:58;;;;;;;;;;;13.60;59.00;;;;;;5083040;28;19986;-90
2023/03/03 11:08:38;;;;;;;;;;;13.60;59.30;;;;;;5084047;28;19952;-89
2023/03/03 11:11:23;;;;;;;;;;;13.90;58.50;;;;;;5069281;28;19960;-90
2023/03/03 11:14:11;;;;;;;;;;;14.40;56.00;;;;;;5090927;28;20018;-89
2023/03/03 11:16:46;;;;;;;;;;;14.60;56.00;;;;;;5080012;28;20468;-90
2023/03/03 11:19:19;;;;;;;;;;;14.90;54.80;;;;;;5094459;28;19955;-90
2023/03/03 11:21:49;;;;;;;;;;;15.10;55.10;;;;;;5094052;28;20030;-90
2023/03/03 11:24:30;;;;;;;;;;;15.30;54.50;;;;;;5094853;28;19937;-90
2023/03/03 11:27:01;;;;;;;;;;;15.10;53.30;;;;;;5076615;28;20006;-89
2023/03/03 11:29:33;;;;;;;;;;;14.90;54.20;;;;;;5094954;28;19942;-89
2023/03/03 11:32:22;;;;;;;;;;;14.60;55.50;;;;;;5080378;28;19948;-89
2023/03/03 11:34:47;;;;;;;;;;;14.50;57.50;;;;;;5063368;28;19997;-89
2023/03/03 11:37:13;;;;;;;;;;;14.40;56.20;;;;;;5074436;28;19937;-89
2023/03/03 11:39:39;;;;;;;;;;;14.40;57.60;;;;;;5074353;28;19941;-90
2023/03/03 11:42:23;;;;;;;;;;;14.70;54.70;;;;;;5088707;28;19948;-90
2023/03/03 11:45:07;;;;;;;;;;;15.10;54.30;;;;;;5094460;28;20004;-90
2023/03/03 11:47:38;;;;;;;;;;;15.30;52.90;;;;;;5094460;28;19941;-90
2023/03/03 11:50:36;;;;;;;;;;;15.30;52.20;;;;;;5082773;28;19950;-90
2023/03/03 11:53:23;;;;;;;;;;;15.30;52.60;;;;;;5029158;28;20009;-90
2023/03/03 11:55:54;;;;;;;;;;;15.30;52.80;;;;;;5074028;28;19944;-89
2023/03/03 11:58:39;;;;;;;;;;;15.10;53.20;;;;;;5073978;28;20007;-89
2023/03/03 12:01:16;;;;;;;;;;;14.80;55.00;;;;;;5093238;28;20435;-90
2023/03/03 12:04:01;;;;;;;;;;;14.40;55.30;;;;;;5093996;28;19946;-89
2023/03/03 12:06:30;;;;;;;;;;;14.50;55.40;;;;;;5094110;28;20422;-89
2023/03/03 12:09:14;;;;;;;;;;;14.80;54.20;;;;;;5088732;28;19982;-90
2023/03/03 12:11:47;;;;;;;;;;;15.10;52.50;;;;;;5088822;28;20042;-90
2023/03/03 12:14:15;;;;;;;;;;;15.30;51.20;;;;;;5091329;28;19958;-90
2023/03/03 12:16:54;;;;;;;;;;;15.60;51.40;;;;;;5087009;28;19948;-90
2023/03/03 12:19:27;;;;;;;;;;;15.80;50.50;;;;;;5081235;28;19972;-90
2023/03/03 12:21:58;;;;;;;;;;;16.20;49.00;;;;;;5073687;28;20038;-89
2023/03/03 12:24:27;;;;;;;;;;;15.80;48.90;;;;;;5082677;28;19945;-90
2023/03/03 12:26:56;;;;;;;;;;;15.80;49.40;;;;;;5084305;28;19946;-90
2023/03/03 12:29:25;;;;;;;;;;;15.80;49.90;;;;;;5089231;28;19955;-90
2023/03/03 12:32:05;;;;;;;;;;;16.10;49.00;;;;;;5087950;28;19983;-89
2023/03/03 12:34:36;;;;;;;;;;;16.00;48.50;;;;;;5086786;28;20101;-89
2023/03/03 12:37:04;;;;;;;;;;;15.60;49.80;;;;;;5076402;28;20328;-89
2023/03/03 12:39:37;;;;;;;;;;;15.50;49.80;;;;;;5081408;28;19947;-89
2023/03/03 12:42:02;;;;;;;;;;;15.60;49.90;;;;;;5086805;28;19951;-89
2023/03/03 12:44:39;;;;;;;;;;;16.00;48.60;;;;;;5086866;28;19949;-89
2023/03/03 12:47:23;;;;;;;;;;;16.60;48.70;;;;;;5076850;28;19990;-89
2023/03/03 12:49:48;;;;;;;;;;;17.20;46.80;;;;;;5088411;28;20088;-90
2023/03/03 12:52:24;;;;;;;;;;;17.30;46.20;;;;;;5078314;28;20027;-90
2023/03/03 12:55:04;;;;;;;;;;;17.80;46.20;;;;;;5083661;28;19982;-90
2023/03/03 12:57:30;;;;;;;;;;;18.20;44.10;;;;;;5083740;28;19959;-90
2023/03/03 13:00:15;;;;;;;;;;;18.80;42.00;;;;;;5084346;28;19944;-90
2023/03/03 13:02:44;;;;;;;;;;;19.30;40.80;;;;;;5062112;28;20000;-89
2023/03/03 13:05:28;;;;;;;;;;;19.30;40.90;;;;;;5049192;28;19948;-90
2023/03/03 13:08:05;;;;;;;;;;;19.80;40.90;;;;;;5046550;28;19963;-90
2023/03/03 13:10:33;;;;;;;;;;;19.80;40.70;;;;;;5049259;28;20424;-89
2023/03/03 13:13:09;;;;;;;;;;;19.20;44.80;;;;;;5048554;28;19946;-90
2023/03/03 13:15:36;;;;;;;;;;;18.80;41.70;;;;;;5045491;28;19963;-90
2023/03/03 13:18:20;;;;;;;;;;;18.70;42.80;;;;;;5051064;28;19952;-90
2023/03/03 13:20:46;;;;;;;;;;;18.40;43.40;;;;;;5045624;28;19949;-90
2023/03/03 13:23:11;;;;;;;;;;;18.10;44.50;;;;;;5051750;28;20418;-90
2023/03/03 13:25:54;;;;;;;;;;;18.10;44.70;;;;;;5053173;28;19963;-90
2023/03/03 13:28:25;;;;;;;;;;;18.30;44.60;;;;;;5060204;28;20451;-90
2023/03/03 13:30:53;;;;;;;;;;;18.30;43.80;;;;;;5058414;28;19944;-90
2023/03/03 13:33:24;;;;;;;;;;;18.70;42.10;;;;;;5036861;28;19981;-90
2023/03/03 13:35:58;;;;;;;;;;;19.30;41.30;;;;;;5055082;28;20462;-90
2023/03/03 13:38:28;;;;;;;;;;;20.80;38.80;;;;;;5059994;28;19954;-90
2023/03/03 13:41:13;;;;;;;;;;;22.00;36.10;;;;;;5053429;28;20406;-90
2023/03/03 13:43:57;;;;;;;;;;;22.50;35.10;;;;;;5054603;28;19961;-89
2023/03/03 13:46:31;;;;;;;;;;;22.20;37.80;;;;;;5053788;28;19944;-90
2023/03/03 13:49:15;;;;;;;;;;;22.80;35.50;;;;;;5058137;28;19937;-90
2023/03/03 13:51:52;;;;;;;;;;;23.00;34.60;;;;;;5052267;28;19954;-90
2023/03/03 13:54:34;;;;;;;;;;;22.90;34.90;;;;;;5058905;28;19955;-90
2023/03/03 13:57:06;;;;;;;;;;;21.90;35.20;;;;;;5055594;28;19949;-90
2023/03/03 13:59:32;;;;;;;;;;;21.90;36.10;;;;;;5056067;28;19979;-90
2023/03/03 14:01:57;;;;;;;;;;;21.50;36.30;;;;;;5053022;28;20002;-90
2023/03/03 14:04:47;;;;;;;;;;;21.00;36.90;;;;;;5061914;28;20466;-90
2023/03/03 14:07:16;;;;;;;;;;;20.30;38.20;;;;;;5060692;28;19986;-89
2023/03/03 14:09:53;;;;;;;;;;;19.60;41.20;;;;;;5068170;28;19956;-90
2023/03/03 14:12:26;;;;;;;;;;;18.90;44.10;;;;;;5070345;28;19942;-90
2023/03/03 14:15:11;;;;;;;;;;;18.80;43.80;;;;;;5066973;28;19983;-90
2023/03/03 14:17:55;;;;;;;;;;;18.80;42.70;;;;;;5061262;28;19944;-90
2023/03/03 14:20:23;;;;;;;;;;;18.70;42.30;;;;;;5067780;28;20400;-90
2023/03/03 14:23:13;;;;;;;;;;;18.40;44.20;;;;;;5074255;28;19945;-89
2023/03/03 14:25:57;;;;;;;;;;;18.20;45.60;;;;;;5064323;28;20013;-89
2023/03/03 14:28:24;;;;;;;;;;;17.90;46.60;;;;;;5045497;28;20410;-89
2023/03/03 14:30:53;;;;;;;;;;;17.90;46.40;;;;;;5066720;28;19948;-89
2023/03/03 14:33:20;;;;;;;;;;;17.80;45.90;;;;;;5047820;28;19945;-89
2023/03/03 14:35:55;;;;;;;;;;;17.70;46.00;;;;;;5067451;28;19946;-89
2023/03/03 14:38:23;;;;;;;;;;;17.90;44.30;;;;;;5067908;28;20023;-89
2023/03/03 14:40:49;;;;;;;;;;;18.40;43.30;;;;;;5069253;28;20000;-89
2023/03/03 14:43:26;;;;;;;;;;;18.90;42.60;;;;;;5068219;28;19944;-89